Time;durP1;ratioP1;P1;durP2;ratioP2;P2;SDS_P1;SDS_P2;PMS_P1;PMS_P2;Temp;Humidity;BMP_temperature;BMP_pressure;BME280_temperature;BME280_humidity;BME280_pressure;Samples;Min_cycle;Max_cycle;Signal;HPM_P1;HPM_P2
2023/06/08 00:00:05;;;;;;;16.13;10.35;;;17.90;99.90;;;;;;4890022;29;20657;-79
2023/06/08 00:02:37;;;;;;;17.33;11.10;;;18.00;99.90;;;;;;4898344;29;20101;-79
2023/06/08 00:05:07;;;;;;;16.83;10.80;;;18.00;99.90;;;;;;4888459;29;20053;-79
2023/06/08 00:07:34;;;;;;;16.88;10.88;;;18.00;99.90;;;;;;4886951;29;20062;-79
2023/06/08 00:10:02;;;;;;;14.95;10.40;;;18.00;99.90;;;;;;4869799;29;20047;-79
2023/06/08 00:12:30;;;;;;;15.02;10.13;;;17.90;99.90;;;;;;4873846;29;21733;-79
2023/06/08 00:14:57;;;;;;;15.15;9.88;;;18.00;99.90;;;;;;4871501;29;20052;-79
2023/06/08 00:17:24;;;;;;;14.52;9.52;;;18.00;99.90;;;;;;4885569;29;20041;-79
2023/06/08 00:19:56;;;;;;;15.75;9.93;;;17.90;99.90;;;;;;4881495;29;20149;-79
2023/06/08 00:22:24;;;;;;;13.05;8.57;;;18.00;99.90;;;;;;4902404;29;20051;-79
2023/06/08 00:24:51;;;;;;;15.20;9.65;;;17.90;99.90;;;;;;4874440;29;20087;-79
2023/06/08 00:27:18;;;;;;;13.02;8.65;;;17.90;99.90;;;;;;4903707;29;20059;-79
2023/06/08 00:29:46;;;;;;;13.80;9.07;;;17.90;99.90;;;;;;4890596;29;22733;-79
2023/06/08 00:32:13;;;;;;;14.15;9.00;;;17.90;99.90;;;;;;4890437;29;20068;-79
2023/06/08 00:34:40;;;;;;;12.85;8.57;;;17.90;99.90;;;;;;4884336;29;20052;-79
2023/06/08 00:37:07;;;;;;;13.38;8.88;;;17.90;99.90;;;;;;4887983;29;20411;-79
2023/06/08 00:39:34;;;;;;;14.48;9.48;;;17.90;99.90;;;;;;4901854;29;20128;-79
2023/06/08 00:42:01;;;;;;;17.08;10.18;;;18.00;99.90;;;;;;4887815;29;20075;-79
2023/06/08 00:44:28;;;;;;;13.95;8.85;;;17.90;99.90;;;;;;4880582;29;20044;-79
2023/06/08 00:46:56;;;;;;;13.32;9.25;;;17.90;99.90;;;;;;4885665;29;20093;-79
2023/06/08 00:49:24;;;;;;;12.65;8.55;;;17.90;99.90;;;;;;4885250;29;20053;-79
2023/06/08 00:51:52;;;;;;;16.13;8.85;;;17.90;99.90;;;;;;4899029;29;20100;-79
2023/06/08 00:54:19;;;;;;;14.70;8.98;;;18.00;99.90;;;;;;4873072;29;20044;-79
2023/06/08 00:56:48;;;;;;;13.77;8.60;;;17.90;99.90;;;;;;4891336;29;20096;-79
2023/06/08 00:59:20;;;;;;;16.45;10.13;;;18.00;99.90;;;;;;4887261;29;20717;-79
2023/06/08 01:01:47;;;;;;;13.35;8.65;;;17.90;99.90;;;;;;4886004;29;20052;-79
2023/06/08 01:04:16;;;;;;;36.10;10.90;;;18.00;99.90;;;;;;4882130;29;20060;-79
2023/06/08 01:06:48;;;;;;;14.73;9.25;;;18.00;99.90;;;;;;4872353;29;20140;-78
2023/06/08 01:09:32;;;;;;;14.07;8.60;;;17.90;99.90;;;;;;4872390;29;20064;-78
2023/06/08 01:12:03;;;;;;;15.25;9.05;;;17.90;99.90;;;;;;4888589;29;20061;-78
2023/06/08 01:15:04;;;;;;;14.68;8.90;;;17.90;99.90;;;;;;4886480;29;20048;-78
2023/06/08 01:17:44;;;;;;;13.30;9.00;;;17.90;99.90;;;;;;4896936;29;20079;-79
2023/06/08 01:20:51;;;;;;;14.95;9.98;;;18.00;99.90;;;;;;4898703;29;20052;-79
2023/06/08 01:23:56;;;;;;;13.57;9.55;;;17.90;99.90;;;;;;4880925;29;20059;-79
2023/06/08 01:26:25;;;;;;;17.27;10.10;;;17.90;99.90;;;;;;4891198;29;20515;-79
2023/06/08 01:28:52;;;;;;;15.82;10.23;;;17.90;99.90;;;;;;4882596;29;20060;-79
2023/06/08 01:31:20;;;;;;;14.82;9.88;;;17.90;99.90;;;;;;4868387;29;20059;-78
2023/06/08 01:33:48;;;;;;;15.80;10.13;;;17.90;99.90;;;;;;4882001;29;20050;-78
2023/06/08 01:36:15;;;;;;;17.27;10.48;;;18.00;99.90;;;;;;4885104;29;22384;-78
2023/06/08 01:39:08;;;;;;;16.38;10.23;;;18.00;99.90;;;;;;4874003;29;20116;-78
2023/06/08 01:41:43;;;;;;;17.33;10.07;;;18.00;99.90;;;;;;4857687;29;20048;-78
2023/06/08 01:44:14;;;;;;;16.27;10.30;;;18.00;99.90;;;;;;4882132;29;20103;-79
2023/06/08 01:46:46;;;;;;;16.90;10.70;;;18.00;99.90;;;;;;4889211;29;21737;-79
2023/06/08 01:49:15;;;;;;;16.60;10.75;;;18.00;99.90;;;;;;4870722;29;20056;-79
2023/06/08 01:51:46;;;;;;;15.05;9.93;;;17.90;99.90;;;;;;4886856;29;20048;-79
2023/06/08 01:54:13;;;;;;;16.83;11.10;;;17.90;99.90;;;;;;4887667;29;20067;-79
2023/06/08 01:56:40;;;;;;;15.30;10.30;;;17.90;99.90;;;;;;4866088;29;20059;-79
2023/06/08 01:59:09;;;;;;;16.00;9.82;;;17.90;99.90;;;;;;4870055;29;20054;-79
2023/06/08 02:01:36;;;;;;;29.23;11.82;;;18.00;99.90;;;;;;4884408;29;20044;-79
2023/06/08 02:04:04;;;;;;;18.05;10.52;;;18.00;99.90;;;;;;4886926;29;20096;-78
2023/06/08 02:06:31;;;;;;;14.65;9.30;;;18.00;99.90;;;;;;4897217;29;20052;-79
2023/06/08 02:09:00;;;;;;;15.55;9.82;;;18.00;99.90;;;;;;4874856;29;20057;-79
2023/06/08 02:11:27;;;;;;;17.92;10.27;;;18.00;99.90;;;;;;4874719;29;20067;-79
2023/06/08 02:13:54;;;;;;;17.70;10.10;;;18.00;99.90;;;;;;4887795;29;20053;-79
2023/06/08 02:16:22;;;;;;;19.33;11.02;;;18.00;99.90;;;;;;4884431;29;22974;-79
2023/06/08 02:18:50;;;;;;;19.35;11.65;;;18.00;99.90;;;;;;4882177;29;20062;-79
2023/06/08 02:21:20;;;;;;;19.88;11.07;;;17.90;99.90;;;;;;4887211;29;20063;-79
2023/06/08 02:23:47;;;;;;;16.77;11.65;;;17.90;99.90;;;;;;4883222;29;20634;-79
2023/06/08 02:26:16;;;;;;;20.08;13.05;;;18.00;99.90;;;;;;4883841;29;20048;-79
2023/06/08 02:28:43;;;;;;;17.60;11.45;;;18.00;99.90;;;;;;4874994;29;20060;-79
2023/06/08 02:31:11;;;;;;;17.80;10.82;;;18.00;99.90;;;;;;4896049;29;20048;-79
2023/06/08 02:33:38;;;;;;;18.30;10.95;;;18.00;99.90;;;;;;4883658;29;20048;-79
2023/06/08 02:36:09;;;;;;;17.67;10.80;;;18.00;99.90;;;;;;4866888;29;20048;-79
2023/06/08 02:38:38;;;;;;;18.85;11.23;;;18.00;99.90;;;;;;4886913;29;20060;-79
2023/06/08 02:41:06;;;;;;;17.95;10.63;;;18.00;99.90;;;;;;4876171;29;20044;-79
2023/06/08 02:43:38;;;;;;;18.73;11.10;;;18.00;99.90;;;;;;4885295;29;20052;-79
2023/06/08 02:46:05;;;;;;;17.80;12.32;;;18.00;99.90;;;;;;4888535;29;20044;-79
2023/06/08 02:48:33;;;;;;;18.20;12.00;;;18.00;99.90;;;;;;4879720;29;20599;-79
2023/06/08 02:51:00;;;;;;;20.42;12.65;;;18.00;99.90;;;;;;4902053;29;20488;-79
2023/06/08 02:53:27;;;;;;;23.67;12.30;;;17.90;99.90;;;;;;4896908;29;20055;-79
2023/06/08 02:55:54;;;;;;;19.70;12.25;;;17.90;99.90;;;;;;4900972;29;22704;-79
2023/06/08 02:58:24;;;;;;;19.73;12.07;;;17.90;99.90;;;;;;4873683;29;20539;-79
2023/06/08 03:00:53;;;;;;;19.42;11.50;;;18.00;99.90;;;;;;4871582;29;20052;-79
2023/06/08 03:04:00;;;;;;;19.13;11.00;;;18.00;99.90;;;;;;4892149;29;20076;-78
2023/06/08 03:06:36;;;;;;;21.33;11.38;;;18.00;99.90;;;;;;4884612;29;20056;-79
2023/06/08 03:09:09;;;;;;;20.63;12.00;;;18.00;99.90;;;;;;4898926;29;20123;-79
2023/06/08 03:11:39;;;;;;;18.92;11.63;;;18.00;99.90;;;;;;4869892;29;20100;-79
2023/06/08 03:14:10;;;;;;;22.20;12.48;;;18.00;99.90;;;;;;4875501;29;20051;-79
2023/06/08 03:16:37;;;;;;;19.75;12.73;;;18.00;99.90;;;;;;4894452;29;20072;-79
2023/06/08 03:19:05;;;;;;;19.27;11.50;;;18.00;99.90;;;;;;4867000;29;22922;-79
2023/06/08 03:21:36;;;;;;;20.30;13.05;;;18.00;99.90;;;;;;4895549;29;20108;-79
2023/06/08 03:24:05;;;;;;;19.23;11.55;;;18.00;99.90;;;;;;4872139;29;20080;-79
2023/06/08 03:26:35;;;;;;;19.25;11.68;;;18.00;99.90;;;;;;4876129;29;20056;-79
2023/06/08 03:29:03;;;;;;;21.58;13.13;;;18.00;99.90;;;;;;4878106;29;20048;-79
2023/06/08 03:31:36;;;;;;;21.80;12.20;;;18.00;99.90;;;;;;4890602;29;20045;-79
2023/06/08 03:34:07;;;;;;;18.88;11.55;;;18.00;99.90;;;;;;4872773;29;20040;-79
2023/06/08 03:36:38;;;;;;;23.48;12.60;;;18.00;99.90;;;;;;4873945;29;20047;-79
2023/06/08 03:39:15;;;;;;;22.92;12.82;;;18.00;99.90;;;;;;4886309;29;20235;-79
2023/06/08 03:41:43;;;;;;;20.83;12.70;;;18.00;99.90;;;;;;4880106;29;20049;-79
2023/06/08 03:44:11;;;;;;;21.33;12.43;;;18.10;99.90;;;;;;4888895;29;20096;-79
2023/06/08 03:46:40;;;;;;;24.08;12.68;;;18.10;99.90;;;;;;4898365;29;20075;-79
2023/06/08 03:49:07;;;;;;;19.90;11.60;;;18.10;99.90;;;;;;4873692;29;20104;-79
2023/06/08 03:51:35;;;;;;;20.02;12.43;;;18.10;99.90;;;;;;4883366;29;20041;-79
2023/06/08 03:54:03;;;;;;;20.58;11.65;;;18.10;99.90;;;;;;4874647;29;20146;-79
2023/06/08 03:56:30;;;;;;;20.00;12.23;;;18.10;99.90;;;;;;4886066;29;22674;-79
2023/06/08 03:58:59;;;;;;;20.00;10.95;;;18.10;99.90;;;;;;4892028;29;20044;-79
2023/06/08 04:01:28;;;;;;;18.58;11.50;;;18.10;99.90;;;;;;4871920;29;20044;-79
2023/06/08 04:03:55;;;;;;;22.17;11.25;;;18.20;99.90;;;;;;4885769;29;20036;-79
2023/06/08 04:06:23;;;;;;;21.00;11.63;;;18.20;99.90;;;;;;4893144;29;20056;-79
2023/06/08 04:08:51;;;;;;;19.80;12.13;;;18.20;99.90;;;;;;4884806;29;20472;-79
2023/06/08 04:11:18;;;;;;;18.40;11.25;;;18.20;99.90;;;;;;4891925;29;21069;-79
2023/06/08 04:13:45;;;;;;;16.42;10.38;;;18.20;99.90;;;;;;4871919;29;20111;-78
2023/06/08 04:16:16;;;;;;;19.05;10.95;;;18.20;99.90;;;;;;4889392;29;20059;-79
2023/06/08 04:18:49;;;;;;;;;;;18.30;99.90;;;;;;4885341;29;20052;-79
2023/06/08 04:21:21;;;;;;;17.25;9.52;;;18.30;99.90;;;;;;4897719;29;19935;-79
2023/06/08 04:23:48;;;;;;;17.23;10.02;;;18.20;99.90;;;;;;4884931;29;20876;-79
2023/06/08 04:26:20;;;;;;;20.48;10.75;;;18.30;99.90;;;;;;4888753;29;20173;-79
2023/06/08 04:28:48;;;;;;;16.38;9.85;;;18.30;99.90;;;;;;4898926;29;20559;-79
2023/06/08 04:31:19;;;;;;;20.77;11.25;;;18.30;99.90;;;;;;4904930;29;20119;-80
2023/06/08 04:33:47;;;;;;;17.58;10.45;;;18.30;99.90;;;;;;4884525;29;20051;-80
2023/06/08 04:36:15;;;;;;;16.98;9.55;;;18.30;99.90;;;;;;4884696;29;20048;-79
2023/06/08 04:38:42;;;;;;;18.35;10.68;;;18.40;99.90;;;;;;4897680;29;20057;-79
2023/06/08 04:41:11;;;;;;;20.80;11.30;;;18.30;99.90;;;;;;4887478;29;20159;-79
2023/06/08 04:43:39;;;;;;;24.45;11.60;;;18.40;99.90;;;;;;4901290;29;20056;-78
2023/06/08 04:46:11;;;;;;;24.38;11.65;;;18.30;99.90;;;;;;4881039;29;20056;-78
2023/06/08 04:48:38;;;;;;;17.65;10.88;;;18.30;99.90;;;;;;4869433;29;20048;-79
2023/06/08 04:51:09;;;;;;;24.92;12.63;;;18.40;99.90;;;;;;4870811;29;20052;-79
2023/06/08 04:53:37;;;;;;;24.38;11.93;;;18.40;99.90;;;;;;4868608;29;20054;-79
2023/06/08 04:56:05;;;;;;;21.77;12.63;;;18.40;99.90;;;;;;4891792;29;20109;-78
2023/06/08 04:58:33;;;;;;;21.85;12.23;;;18.40;99.90;;;;;;4889484;29;20142;-78
2023/06/08 05:01:01;;;;;;;26.70;11.55;;;18.30;99.90;;;;;;4866449;29;20056;-78
2023/06/08 05:03:28;;;;;;;24.17;11.43;;;18.40;99.90;;;;;;4882405;29;20055;-79
2023/06/08 05:05:55;;;;;;;28.45;12.82;;;18.40;99.90;;;;;;4901082;29;20409;-78
2023/06/08 05:08:23;;;;;;;25.05;11.82;;;18.40;99.90;;;;;;4893307;29;20062;-79
2023/06/08 05:10:50;;;;;;;22.83;11.52;;;18.40;99.90;;;;;;4888495;29;20063;-79
2023/06/08 05:13:17;;;;;;;20.23;11.98;;;18.40;99.90;;;;;;4867090;29;20063;-79
2023/06/08 05:15:44;;;;;;;21.38;12.15;;;18.40;99.90;;;;;;4880752;29;20044;-79
2023/06/08 05:18:11;;;;;;;20.92;12.13;;;18.40;99.90;;;;;;4898620;29;20108;-79
2023/06/08 05:20:39;;;;;;;18.95;10.73;;;18.50;99.90;;;;;;4889172;29;20063;-79
2023/06/08 05:23:06;;;;;;;20.20;11.70;;;18.50;99.90;;;;;;4885556;29;20391;-79
2023/06/08 05:25:36;;;;;;;21.98;11.48;;;18.50;99.90;;;;;;4898951;29;20056;-79
2023/06/08 05:28:04;;;;;;;22.27;12.18;;;18.50;99.90;;;;;;4870396;29;20083;-79
2023/06/08 05:30:31;;;;;;;20.20;11.60;;;18.50;99.90;;;;;;4890322;29;20056;-79
2023/06/08 05:33:00;;;;;;;25.92;12.43;;;18.60;99.90;;;;;;4891565;29;20053;-79
2023/06/08 05:35:28;;;;;;;20.48;11.90;;;18.60;99.90;;;;;;4885868;29;20063;-79
2023/06/08 05:37:55;;;;;;;21.00;12.88;;;18.60;99.90;;;;;;4874600;29;20139;-79
2023/06/08 05:40:23;;;;;;;17.60;11.40;;;18.60;99.90;;;;;;4888812;29;20139;-79
2023/06/08 05:42:51;;;;;;;19.00;11.02;;;18.70;99.90;;;;;;4886211;29;20059;-79
2023/06/08 05:45:18;;;;;;;22.60;11.13;;;18.70;99.90;;;;;;4863920;29;20056;-79
2023/06/08 05:47:45;;;;;;;20.52;12.20;;;18.70;99.90;;;;;;4865527;29;20052;-79
2023/06/08 05:50:12;;;;;;;20.30;11.93;;;18.60;99.90;;;;;;4870770;29;20052;-79
2023/06/08 05:52:39;;;;;;;21.45;13.07;;;18.70;99.90;;;;;;4863275;29;20206;-74
2023/06/08 05:55:07;;;;;;;19.20;13.13;;;18.70;99.90;;;;;;4846851;29;20036;-75
2023/06/08 05:57:38;;;;;;;20.95;12.77;;;18.70;99.90;;;;;;4845760;29;20044;-74
2023/06/08 06:00:09;;;;;;;22.52;12.98;;;18.70;99.90;;;;;;4862874;29;20082;-74
2023/06/08 06:02:40;;;;;;;21.88;13.10;;;18.60;99.90;;;;;;4830192;29;20525;-75
2023/06/08 06:05:08;;;;;;;18.45;12.05;;;18.70;99.90;;;;;;4835779;29;20154;-75
2023/06/08 06:07:36;;;;;;;20.60;12.80;;;18.70;99.90;;;;;;4843306;29;20048;-74
2023/06/08 06:10:05;;;;;;;22.23;13.07;;;18.70;99.90;;;;;;4845903;29;21612;-75
2023/06/08 06:12:33;;;;;;;19.13;12.88;;;18.70;99.90;;;;;;4857073;29;20060;-74
2023/06/08 06:15:00;;;;;;;22.40;13.32;;;18.80;99.90;;;;;;4844900;29;20113;-75
2023/06/08 06:17:28;;;;;;;19.45;12.70;;;18.80;99.90;;;;;;4849612;29;22492;-74
2023/06/08 06:19:55;;;;;;;19.67;12.27;;;18.80;99.90;;;;;;4828930;29;20052;-74
2023/06/08 06:22:23;;;;;;;19.92;12.35;;;18.80;99.90;;;;;;4834602;29;20088;-74
2023/06/08 06:24:50;;;;;;;20.13;12.38;;;18.90;99.90;;;;;;4844338;29;20052;-74
2023/06/08 06:27:19;;;;;;;21.23;11.63;;;18.90;99.90;;;;;;4849843;29;20812;-75
2023/06/08 06:29:46;;;;;;;20.23;12.48;;;19.00;99.90;;;;;;4865083;29;20128;-74
2023/06/08 06:32:13;;;;;;;17.27;10.32;;;18.90;99.90;;;;;;4846063;29;20143;-74
2023/06/08 06:34:43;;;;;;;15.50;10.40;;;19.00;99.90;;;;;;4839650;29;20048;-74
2023/06/08 06:37:10;;;;;;;17.33;10.18;;;19.00;99.90;;;;;;4857946;29;20066;-75
2023/06/08 06:39:38;;;;;;;15.35;10.35;;;19.00;99.90;;;;;;4835149;29;20131;-75
2023/06/08 06:42:06;;;;;;;16.67;9.65;;;19.00;99.90;;;;;;4833348;29;20048;-74
2023/06/08 06:44:43;;;;;;;14.55;9.82;;;19.00;99.90;;;;;;4857550;29;20078;-74
2023/06/08 06:47:10;;;;;;;12.38;8.52;;;19.00;99.90;;;;;;4856812;29;20048;-75
2023/06/08 06:49:37;;;;;;;14.88;9.77;;;19.10;99.90;;;;;;4826714;29;20045;-74
2023/06/08 06:52:04;;;;;;;17.50;10.57;;;19.10;99.90;;;;;;4870087;29;20527;-75
2023/06/08 06:54:32;;;;;;;13.38;9.68;;;19.10;99.90;;;;;;4858393;29;20139;-74
2023/06/08 06:56:59;;;;;;;17.38;10.55;;;19.20;99.90;;;;;;4867302;29;20048;-75
2023/06/08 06:59:28;;;;;;;14.73;9.77;;;19.20;99.90;;;;;;4859586;29;20049;-75
2023/06/08 07:01:55;;;;;;;16.83;10.18;;;19.20;99.90;;;;;;4863165;29;20052;-75
2023/06/08 07:04:22;;;;;;;16.70;11.02;;;19.20;99.90;;;;;;4853860;29;20685;-75
2023/06/08 07:06:53;;;;;;;19.67;11.15;;;19.20;99.90;;;;;;4854893;29;20063;-74
2023/06/08 07:09:24;;;;;;;13.43;9.35;;;19.30;99.90;;;;;;4850477;29;20092;-75
2023/06/08 07:11:52;;;;;;;15.25;8.90;;;19.30;99.90;;;;;;4856799;29;22254;-75
2023/06/08 07:14:39;;;;;;;15.38;9.65;;;19.30;99.90;;;;;;4852254;29;20055;-75
2023/06/08 07:17:07;;;;;;;20.75;11.75;;;19.30;99.90;;;;;;4852729;29;20087;-75
2023/06/08 07:19:34;;;;;;;16.13;9.52;;;19.30;99.90;;;;;;4861153;29;20376;-75
2023/06/08 07:22:01;;;;;;;21.35;11.05;;;19.30;99.90;;;;;;4843359;29;20098;-75
2023/06/08 07:24:42;;;;;;;14.82;9.57;;;19.30;99.90;;;;;;4838803;29;20048;-74
2023/06/08 07:27:29;;;;;;;18.02;10.45;;;19.40;99.90;;;;;;4860800;29;20056;-75
2023/06/08 07:29:57;;;;;;;17.23;10.32;;;19.30;99.90;;;;;;4862991;29;21000;-75
2023/06/08 07:32:26;;;;;;;23.75;11.68;;;19.40;99.90;;;;;;4857164;29;20060;-75
2023/06/08 07:34:53;;;;;;;18.27;11.00;;;19.30;99.90;;;;;;4845356;29;20505;-75
2023/06/08 07:37:20;;;;;;;18.58;11.35;;;19.40;99.90;;;;;;4836668;29;20063;-75
2023/06/08 07:39:47;;;;;;;18.05;11.05;;;19.50;99.90;;;;;;4860902;29;20903;-74
2023/06/08 07:42:16;;;;;;;17.90;11.65;;;19.50;99.90;;;;;;4852310;29;20079;-74
2023/06/08 07:44:43;;;;;;;19.38;11.98;;;19.50;99.90;;;;;;4849316;29;20191;-74
2023/06/08 07:47:10;;;;;;;20.17;12.07;;;19.50;99.90;;;;;;4834564;29;20048;-74
2023/06/08 07:49:37;;;;;;;17.85;11.18;;;19.60;99.90;;;;;;4854777;29;20057;-75
2023/06/08 07:52:05;;;;;;;22.70;11.13;;;19.70;99.90;;;;;;4838833;29;20048;-75
2023/06/08 07:54:33;;;;;;;19.13;11.50;;;19.80;99.90;;;;;;4860447;29;20147;-75
2023/06/08 07:57:00;;;;;;;16.73;10.65;;;19.90;99.90;;;;;;4837555;29;20044;-75
2023/06/08 07:59:28;;;;;;;16.35;10.40;;;20.10;99.90;;;;;;4844533;29;20494;-75
2023/06/08 08:01:55;;;;;;;17.83;10.40;;;20.10;99.90;;;;;;4858568;29;20439;-75
2023/06/08 08:04:22;;;;;;;18.63;10.82;;;20.10;99.90;;;;;;4849298;29;21111;-75
2023/06/08 08:06:49;;;;;;;18.25;10.90;;;20.20;99.90;;;;;;4863161;29;20041;-75
2023/06/08 08:09:16;;;;;;;20.52;11.75;;;20.40;99.90;;;;;;4845426;29;20554;-74
2023/06/08 08:11:43;;;;;;;15.73;9.55;;;20.90;99.90;;;;;;4842734;29;20070;-74
2023/06/08 08:14:10;;;;;;;16.42;10.27;;;21.30;99.90;;;;;;4863399;29;20257;-74
2023/06/08 08:16:38;;;;;;;16.17;10.73;;;21.30;99.90;;;;;;4848735;29;20045;-75
2023/06/08 08:19:06;;;;;;;16.15;10.77;;;21.00;99.90;;;;;;4837162;29;20049;-74
2023/06/08 08:21:33;;;;;;;13.40;8.20;;;21.10;99.90;;;;;;4866411;29;20052;-74
2023/06/08 08:24:01;;;;;;;14.10;9.70;;;21.20;99.90;;;;;;4846979;29;20048;-75
2023/06/08 08:26:31;;;;;;;12.35;8.50;;;21.20;99.90;;;;;;4844161;29;20092;-74
2023/06/08 08:28:58;;;;;;;9.77;7.15;;;21.20;99.90;;;;;;4866167;29;20095;-74
2023/06/08 08:31:25;;;;;;;15.45;11.02;;;21.30;99.90;;;;;;4860788;29;20688;-74
2023/06/08 08:33:52;;;;;;;14.90;9.60;;;21.40;99.90;;;;;;4843781;29;20539;-74
2023/06/08 08:36:19;;;;;;;14.35;9.60;;;21.40;99.90;;;;;;4847988;29;20204;-74
2023/06/08 08:38:47;;;;;;;12.75;7.97;;;21.40;99.90;;;;;;4859116;29;20053;-74
2023/06/08 08:41:17;;;;;;;10.85;7.55;;;21.40;99.90;;;;;;4876996;29;20040;-74
2023/06/08 08:43:56;;;;;;;12.02;8.52;;;21.40;99.90;;;;;;4843638;29;20690;-74
2023/06/08 08:46:25;;;;;;;9.43;6.70;;;21.30;99.90;;;;;;4848654;29;20836;-74
2023/06/08 08:49:00;;;;;;;14.23;9.57;;;21.30;99.90;;;;;;4859162;29;20056;-74
2023/06/08 08:51:32;;;;;;;13.55;8.98;;;21.20;99.90;;;;;;4861485;29;20768;-74
2023/06/08 08:54:03;;;;;;;12.68;7.63;;;21.10;99.90;;;;;;4861591;29;20052;-74
2023/06/08 08:56:35;;;;;;;13.98;9.02;;;21.10;99.90;;;;;;4835071;29;20531;-74
2023/06/08 08:59:05;;;;;;;12.73;8.00;;;21.00;99.90;;;;;;4841587;29;20083;-74
2023/06/08 09:01:34;;;;;;;14.45;9.65;;;20.90;99.90;;;;;;4853312;29;20052;-74
2023/06/08 09:04:03;;;;;;;15.07;8.68;;;20.80;99.90;;;;;;4849877;29;20076;-75
2023/06/08 09:06:31;;;;;;;16.67;10.13;;;20.80;99.90;;;;;;4864021;29;20631;-75
2023/06/08 09:08:58;;;;;;;14.00;9.10;;;20.80;99.90;;;;;;4864538;29;20135;-75
2023/06/08 09:11:26;;;;;;;14.25;9.48;;;20.80;99.90;;;;;;4853244;29;20064;-74
2023/06/08 09:14:09;;;;;;;10.75;7.80;;;20.80;99.90;;;;;;4837782;29;20216;-74
2023/06/08 09:16:43;;;;;;;11.68;7.60;;;20.80;99.90;;;;;;4856348;29;20416;-74
2023/06/08 09:19:11;;;;;;;9.93;7.18;;;20.70;99.90;;;;;;4852193;29;20051;-74
2023/06/08 09:21:40;;;;;;;12.80;7.78;;;20.70;99.90;;;;;;4850268;29;20052;-75
2023/06/08 09:24:14;;;;;;;12.45;8.15;;;20.60;99.90;;;;;;4833743;29;20070;-75
2023/06/08 09:26:47;;;;;;;11.10;7.60;;;20.60;99.90;;;;;;4865296;29;20056;-75
2023/06/08 09:29:36;;;;;;;11.57;6.00;;;20.60;99.90;;;;;;4855688;29;20179;-74
2023/06/08 09:32:09;;;;;;;11.10;7.13;;;20.60;99.90;;;;;;4860840;29;20059;-74
2023/06/08 09:34:55;;;;;;;10.40;7.25;;;20.70;99.90;;;;;;4847550;29;20052;-75
2023/06/08 09:37:26;;;;;;;10.75;7.70;;;20.80;99.90;;;;;;4836698;29;20140;-75
2023/06/08 09:39:54;;;;;;;11.23;7.88;;;20.80;99.90;;;;;;4835896;29;20056;-74
2023/06/08 09:42:21;;;;;;;12.85;7.25;;;20.80;99.90;;;;;;4837297;29;20128;-74
2023/06/08 09:45:07;;;;;;;8.80;6.68;;;20.80;99.90;;;;;;4851023;29;20056;-74
2023/06/08 09:47:34;;;;;;;11.77;7.45;;;20.80;99.90;;;;;;4862322;29;20184;-74
2023/06/08 09:50:02;;;;;;;14.40;7.03;;;20.80;99.90;;;;;;4869464;29;20064;-75
2023/06/08 09:52:32;;;;;;;10.35;6.55;;;20.90;99.90;;;;;;4863649;29;20056;-75
2023/06/08 09:55:00;;;;;;;11.48;8.18;;;20.90;99.90;;;;;;4834471;29;20200;-74
2023/06/08 09:57:30;;;;;;;11.07;7.03;;;20.80;99.90;;;;;;4850025;29;20052;-74
2023/06/08 10:03:17;;;;;;;12.15;8.02;;;20.80;99.90;;;;;;4861745;29;20056;-74
2023/06/08 10:05:46;;;;;;;14.18;8.90;;;20.70;99.90;;;;;;4841997;29;20056;-74
2023/06/08 10:08:20;;;;;;;13.27;8.63;;;20.70;99.90;;;;;;4853561;29;20432;-74
2023/06/08 10:10:47;;;;;;;12.02;7.90;;;20.70;99.90;;;;;;4852399;29;20259;-74
2023/06/08 10:13:16;;;;;;;16.70;10.68;;;20.70;99.90;;;;;;4859358;29;20182;-74
2023/06/08 10:15:43;;;;;;;11.57;8.80;;;20.70;99.90;;;;;;4860342;29;22411;-74
2023/06/08 10:18:14;;;;;;;12.80;9.38;;;20.80;99.90;;;;;;4833584;29;20063;-75
2023/06/08 10:20:41;;;;;;;14.25;9.32;;;20.80;99.90;;;;;;4860334;29;20044;-74
2023/06/08 10:23:09;;;;;;;20.30;11.27;;;20.80;99.90;;;;;;4847747;29;20056;-72
2023/06/08 10:25:38;;;;;;;17.80;9.93;;;20.70;99.90;;;;;;4862489;29;20607;-73
2023/06/08 10:28:09;;;;;;;17.13;9.57;;;20.70;99.90;;;;;;4852201;29;20139;-72
2023/06/08 10:30:40;;;;;;;11.15;8.55;;;20.70;99.90;;;;;;4859912;29;20084;-72
2023/06/08 10:33:12;;;;;;;13.00;8.98;;;20.70;99.90;;;;;;4844114;29;20420;-73
2023/06/08 10:35:42;;;;;;;13.95;8.25;;;20.70;99.90;;;;;;4857865;29;20047;-73
2023/06/08 10:38:14;;;;;;;12.35;9.00;;;20.70;99.90;;;;;;4853219;29;20044;-74
2023/06/08 10:40:50;;;;;;;12.50;8.93;;;20.70;99.90;;;;;;4864150;29;20820;-72
2023/06/08 10:43:26;;;;;;;10.48;7.90;;;20.70;99.90;;;;;;4861069;29;20195;-73
2023/06/08 10:46:13;;;;;;;11.73;8.30;;;20.60;99.90;;;;;;4859621;29;20039;-73
2023/06/08 10:48:41;;;;;;;13.73;8.88;;;20.70;99.90;;;;;;4863215;29;20040;-73
2023/06/08 10:51:21;;;;;;;13.95;8.70;;;20.80;99.90;;;;;;4844211;29;20052;-73
2023/06/08 10:53:58;;;;;;;16.42;10.38;;;20.90;99.90;;;;;;4859707;29;20052;-74
2023/06/08 10:56:26;;;;;;;15.57;10.65;;;21.20;99.90;;;;;;4854114;29;20201;-74
2023/06/08 10:58:54;;;;;;;15.77;11.48;;;21.50;99.90;;;;;;4847359;29;20800;-74
2023/06/08 11:01:24;;;;;;;12.60;8.63;;;21.60;99.90;;;;;;4851949;29;20103;-74
2023/06/08 11:03:57;;;;;;;11.40;8.50;;;21.50;99.90;;;;;;4857212;29;20047;-74
2023/06/08 11:06:29;;;;;;;11.85;8.90;;;21.50;99.90;;;;;;4853816;29;20501;-74
2023/06/08 11:08:57;;;;;;;12.45;8.50;;;21.60;99.90;;;;;;4861643;29;20056;-74
2023/06/08 11:11:27;;;;;;;12.82;8.80;;;21.70;99.90;;;;;;4860806;29;20056;-74
2023/06/08 11:13:54;;;;;;;12.20;8.27;;;22.50;99.90;;;;;;4863442;29;20608;-74
2023/06/08 11:16:21;;;;;;;11.07;8.13;;;22.00;99.90;;;;;;4853811;29;20048;-74
2023/06/08 11:18:49;;;;;;;12.85;9.27;;;22.10;99.90;;;;;;4862629;29;20637;-74
2023/06/08 11:21:21;;;;;;;10.60;8.02;;;22.10;99.90;;;;;;4861815;29;20057;-74
2023/06/08 11:23:48;;;;;;;14.52;8.93;;;22.20;99.90;;;;;;4860504;29;20080;-74
2023/06/08 11:26:16;;;;;;;10.55;7.75;;;22.10;99.90;;;;;;4848127;29;20052;-74
2023/06/08 11:28:45;;;;;;;9.95;7.25;;;22.10;99.90;;;;;;4856052;29;20135;-74
2023/06/08 11:31:13;;;;;;;11.52;7.07;;;22.10;99.90;;;;;;4864839;29;20044;-74
2023/06/08 11:33:47;;;;;;;9.07;6.75;;;22.00;99.90;;;;;;4866752;29;20039;-74
2023/06/08 11:36:17;;;;;;;9.10;6.15;;;22.10;99.90;;;;;;4839368;29;20079;-74
2023/06/08 11:38:44;;;;;;;7.75;5.22;;;22.30;99.90;;;;;;4863991;29;20180;-75
2023/06/08 11:41:12;;;;;;;6.15;4.55;;;22.50;99.90;;;;;;4866156;29;20044;-74
2023/06/08 11:43:39;;;;;;;9.75;6.10;;;22.60;99.90;;;;;;4865641;29;20055;-75
2023/06/08 11:46:07;;;;;;;11.10;7.78;;;22.60;99.90;;;;;;4849554;29;20048;-75
2023/06/08 11:48:34;;;;;;;10.45;6.75;;;22.70;99.90;;;;;;4865274;29;20051;-75
2023/06/08 11:51:01;;;;;;;11.95;7.90;;;22.80;99.90;;;;;;4846385;29;20060;-74
2023/06/08 11:53:28;;;;;;;10.23;7.53;;;22.60;99.90;;;;;;4854302;29;20080;-75
2023/06/08 11:55:56;;;;;;;11.80;8.85;;;22.50;99.90;;;;;;4847789;29;20057;-74
2023/06/08 11:58:25;;;;;;;11.95;8.65;;;22.50;99.90;;;;;;4846553;29;20054;-77
2023/06/08 12:01:07;;;;;;;13.52;8.90;;;22.40;99.90;;;;;;4845322;29;20052;-76
2023/06/08 12:03:46;;;;;;;13.70;9.38;;;22.30;99.90;;;;;;4845761;29;20060;-76
2023/06/08 12:06:15;;;;;;;14.90;9.02;;;22.10;99.90;;;;;;4868944;29;20075;-76
2023/06/08 12:08:43;;;;;;;12.57;7.43;;;22.10;99.90;;;;;;4852432;29;20496;-76
2023/06/08 12:11:13;;;;;;;12.48;9.30;;;22.40;99.90;;;;;;4846695;29;20048;-75
2023/06/08 12:13:42;;;;;;;13.80;9.00;;;22.60;99.90;;;;;;4833880;29;20510;-76
2023/06/08 12:16:10;;;;;;;10.55;7.30;;;22.60;99.90;;;;;;4829718;29;20056;-76
2023/06/08 12:18:43;;;;;;;11.20;8.32;;;22.60;99.90;;;;;;4841789;29;20107;-76
2023/06/08 12:21:15;;;;;;;15.23;8.93;;;22.70;99.90;;;;;;4848222;29;20052;-75
2023/06/08 12:23:43;;;;;;;13.20;8.15;;;22.70;99.90;;;;;;4846199;29;20091;-76
2023/06/08 12:26:12;;;;;;;10.27;7.35;;;22.60;99.90;;;;;;4863125;29;20048;-77
2023/06/08 12:28:40;;;;;;;10.23;7.38;;;22.60;99.90;;;;;;4851077;29;20500;-78
2023/06/08 12:31:07;;;;;;;9.35;7.40;;;22.50;99.90;;;;;;4872884;29;20049;-79
2023/06/08 12:33:34;;;;;;;11.75;7.80;;;22.60;99.90;;;;;;4841068;29;20059;-79
2023/06/08 12:36:01;;;;;;;11.35;8.20;;;22.60;99.90;;;;;;4856105;29;20056;-79
2023/06/08 12:38:29;;;;;;;10.82;7.85;;;22.50;99.90;;;;;;4869340;29;20052;-81
2023/06/08 12:40:56;;;;;;;11.60;7.63;;;22.40;99.90;;;;;;4856950;29;20060;-79
2023/06/08 12:43:24;;;;;;;10.20;7.45;;;22.40;99.90;;;;;;4879074;29;20040;-79
2023/06/08 12:45:53;;;;;;;11.20;7.35;;;22.40;99.90;;;;;;4896604;29;20052;-79
2023/06/08 12:48:20;;;;;;;8.52;5.13;;;22.40;99.90;;;;;;4882915;29;22018;-79